Pagrindinis puslapis
METAR-TAF:

METAR-TAF

Oro uostai :

Kairas, Egiptas

platuma: 30-08N, ilguma: 031-24E, Aukštis: 64 m

Dabartinis oras

Ataskaita buvo paskelbta 32 minutes, ne 22:30 UTC
Vėjas 8 kt iš Šiaurės
Temperatūra 24°C
Drėgmė 69%
Slėgis 1014 hPa
Matomumas 10 km arba daugiau
nėra debesų žemiau 1500 m ir nėra kamuolinių lietaus debesų

METAR: HECA 202230Z 36008KT CAVOK 24/18 Q1014 NOSIG

Laikas: 01:02 (23:02 UTC)

Prognozė

Ataskaita buvo paskelbta 2 minutes, ne 23:00 UTC
Prognozė galioja nuo 20 metu 00 UTC su 22 metu 06 UTC
Vėjas 8 kt iš Šiaurės/Šiaurės Rytų
Matomumas: 6000 m
Laikinai
nuo 21 metu 00 UTC su 21 metu 06 UTC
Vėjas 3 kt nuo kintamojo kryptimis
Tapsmas
nuo 21 metu 07 UTC su 21 metu 09 UTC
Vėjas 10 kt iš Šiaurės
Matomumas 10 km arba daugiau
Mažai debesys ne aukštis 2500 ft

TAF: HECA 202300Z 2000/2206 02008KT 6000 NSC TEMPO 2100/2106 VRB03KT 3000BR BECMG 2107/2109 35010KT 9999 FEW025

Orai ataskaitas ir orų prognozės (METAR, TAF).

turimą stotys yra geltonos ir raudonos taškus žemėlapyje.

Perkelti pele per norėdami pamatyti stoties vardą.

Tada spustelėkite, norėdami matyti oro stebėjimo ir prognozės.

Norėdami pakeisti žemėlapį: spustelėkite ant žalios mygtukų su juodo kryžiaus žemyn,; žalią mygtuką su brūkšneliu, jei norite nutolinti; arba žalių rodyklių gretimoms žemėlapius.


METAR-TAF: